sensor_id;sensor_type;location;lat;lon;timestamp;pressure;altitude;pressure_sealevel;temperature;humidity
17054;BME280;8643;48.824;11.422;2023-03-14T00:00:09;95275.13;;;8.06;100.00
17054;BME280;8643;48.824;11.422;2023-03-14T00:02:41;95281.13;;;7.96;100.00
17054;BME280;8643;48.824;11.422;2023-03-14T00:05:10;95304.06;;;7.95;100.00
17054;BME280;8643;48.824;11.422;2023-03-14T00:07:40;95325.78;;;8.07;100.00
17054;BME280;8643;48.824;11.422;2023-03-14T00:10:12;95358.66;;;7.98;100.00
17054;BME280;8643;48.824;11.422;2023-03-14T00:12:42;95382.06;;;7.83;100.00
17054;BME280;8643;48.824;11.422;2023-03-14T00:15:12;95401.41;;;7.78;100.00
17054;BME280;8643;48.824;11.422;2023-03-14T00:17:43;95424.31;;;7.77;100.00
17054;BME280;8643;48.824;11.422;2023-03-14T00:20:12;95413.00;;;7.75;100.00
17054;BME280;8643;48.824;11.422;2023-03-14T00:22:41;95415.56;;;7.84;100.00
17054;BME280;8643;48.824;11.422;2023-03-14T00:25:11;95398.94;;;7.89;100.00
17054;BME280;8643;48.824;11.422;2023-03-14T00:27:40;95400.00;;;8.00;100.00
17054;BME280;8643;48.824;11.422;2023-03-14T00:30:12;95355.16;;;7.98;100.00
17054;BME280;8643;48.824;11.422;2023-03-14T00:32:40;95350.94;;;8.00;100.00
17054;BME280;8643;48.824;11.422;2023-03-14T00:35:09;95307.69;;;7.99;100.00
17054;BME280;8643;48.824;11.422;2023-03-14T00:37:38;95302.66;;;8.01;100.00
17054;BME280;8643;48.824;11.422;2023-03-14T00:40:09;95279.25;;;8.00;100.00
17054;BME280;8643;48.824;11.422;2023-03-14T00:42:37;95283.16;;;7.99;100.00
17054;BME280;8643;48.824;11.422;2023-03-14T00:45:07;95300.28;;;7.99;100.00
17054;BME280;8643;48.824;11.422;2023-03-14T00:47:41;95276.53;;;8.00;100.00
17054;BME280;8643;48.824;11.422;2023-03-14T00:50:12;95281.00;;;8.08;100.00
17054;BME280;8643;48.824;11.422;2023-03-14T00:52:41;95273.69;;;8.12;100.00
17054;BME280;8643;48.824;11.422;2023-03-14T00:55:10;95312.16;;;8.07;100.00
17054;BME280;8643;48.824;11.422;2023-03-14T00:57:38;95352.22;;;8.06;100.00
17054;BME280;8643;48.824;11.422;2023-03-14T01:00:08;95369.41;;;8.07;100.00
17054;BME280;8643;48.824;11.422;2023-03-14T01:02:41;95371.66;;;8.05;100.00
17054;BME280;8643;48.824;11.422;2023-03-14T01:05:10;95382.47;;;8.01;100.00
17054;BME280;8643;48.824;11.422;2023-03-14T01:07:38;95390.84;;;7.93;100.00
17054;BME280;8643;48.824;11.422;2023-03-14T01:10:09;95381.00;;;7.88;100.00
17054;BME280;8643;48.824;11.422;2023-03-14T01:12:38;95361.06;;;7.84;100.00
17054;BME280;8643;48.824;11.422;2023-03-14T01:15:09;95374.56;;;7.80;100.00
17054;BME280;8643;48.824;11.422;2023-03-14T01:17:38;95387.00;;;7.78;100.00
17054;BME280;8643;48.824;11.422;2023-03-14T01:20:14;95396.66;;;7.75;100.00
17054;BME280;8643;48.824;11.422;2023-03-14T01:22:43;95399.56;;;7.66;100.00
17054;BME280;8643;48.824;11.422;2023-03-14T01:25:15;95392.16;;;7.67;100.00
17054;BME280;8643;48.824;11.422;2023-03-14T01:27:48;95399.34;;;7.59;100.00
17054;BME280;8643;48.824;11.422;2023-03-14T01:30:17;95393.81;;;7.56;100.00
17054;BME280;8643;48.824;11.422;2023-03-14T01:32:46;95387.16;;;7.53;100.00
17054;BME280;8643;48.824;11.422;2023-03-14T01:35:17;95379.59;;;7.46;100.00
17054;BME280;8643;48.824;11.422;2023-03-14T01:37:45;95373.78;;;7.48;100.00
17054;BME280;8643;48.824;11.422;2023-03-14T01:40:19;95367.09;;;7.45;100.00
17054;BME280;8643;48.824;11.422;2023-03-14T01:42:55;95368.22;;;7.44;100.00
17054;BME280;8643;48.824;11.422;2023-03-14T01:49:04;95347.22;;;7.29;100.00
17054;BME280;8643;48.824;11.422;2023-03-14T01:51:45;95312.81;;;7.21;100.00
17054;BME280;8643;48.824;11.422;2023-03-14T01:54:20;95271.00;;;7.13;100.00
17054;BME280;8643;48.824;11.422;2023-03-14T01:56:56;95267.03;;;7.10;100.00
17054;BME280;8643;48.824;11.422;2023-03-14T01:59:29;95249.13;;;7.09;100.00
17054;BME280;8643;48.824;11.422;2023-03-14T02:02:00;95247.09;;;7.06;100.00
17054;BME280;8643;48.824;11.422;2023-03-14T02:04:34;95240.06;;;7.05;100.00
17054;BME280;8643;48.824;11.422;2023-03-14T02:07:12;95215.84;;;7.00;100.00
17054;BME280;8643;48.824;11.422;2023-03-14T02:09:54;95277.13;;;7.10;100.00
17054;BME280;8643;48.824;11.422;2023-03-14T02:12:28;95309.34;;;7.08;100.00
17054;BME280;8643;48.824;11.422;2023-03-14T02:15:29;95285.47;;;7.01;100.00
17054;BME280;8643;48.824;11.422;2023-03-14T02:18:26;95293.38;;;7.06;100.00
17054;BME280;8643;48.824;11.422;2023-03-14T02:21:23;95284.06;;;7.07;100.00
17054;BME280;8643;48.824;11.422;2023-03-14T02:24:06;95265.94;;;6.99;100.00
17054;BME280;8643;48.824;11.422;2023-03-14T02:27:03;95272.13;;;6.96;100.00
17054;BME280;8643;48.824;11.422;2023-03-14T02:29:36;95272.91;;;6.96;100.00
17054;BME280;8643;48.824;11.422;2023-03-14T02:32:08;95269.75;;;6.94;100.00
17054;BME280;8643;48.824;11.422;2023-03-14T02:34:43;95262.28;;;6.91;100.00
17054;BME280;8643;48.824;11.422;2023-03-14T02:37:16;95271.03;;;6.85;100.00
17054;BME280;8643;48.824;11.422;2023-03-14T02:39:46;95271.03;;;6.85;100.00
17054;BME280;8643;48.824;11.422;2023-03-14T02:42:19;95270.94;;;6.81;100.00
17054;BME280;8643;48.824;11.422;2023-03-14T02:44:59;95284.53;;;6.81;100.00
17054;BME280;8643;48.824;11.422;2023-03-14T02:47:30;95292.34;;;6.83;100.00
17054;BME280;8643;48.824;11.422;2023-03-14T02:50:04;95297.34;;;6.81;100.00
17054;BME280;8643;48.824;11.422;2023-03-14T02:52:33;95303.91;;;6.79;100.00
17054;BME280;8643;48.824;11.422;2023-03-14T02:55:02;95298.84;;;6.78;100.00
17054;BME280;8643;48.824;11.422;2023-03-14T02:57:34;95284.34;;;6.74;100.00
17054;BME280;8643;48.824;11.422;2023-03-14T03:00:04;95291.47;;;6.78;100.00
17054;BME280;8643;48.824;11.422;2023-03-14T03:02:36;95282.06;;;6.76;100.00
17054;BME280;8643;48.824;11.422;2023-03-14T03:05:06;95283.22;;;6.75;100.00
17054;BME280;8643;48.824;11.422;2023-03-14T03:07:34;95288.19;;;6.73;100.00
17054;BME280;8643;48.824;11.422;2023-03-14T03:10:06;95283.09;;;6.71;100.00
17054;BME280;8643;48.824;11.422;2023-03-14T03:12:36;95280.38;;;6.71;100.00
17054;BME280;8643;48.824;11.422;2023-03-14T03:15:06;95283.47;;;6.70;100.00
17054;BME280;8643;48.824;11.422;2023-03-14T03:17:37;95270.22;;;6.68;100.00
17054;BME280;8643;48.824;11.422;2023-03-14T03:20:07;95265.81;;;6.64;100.00
17054;BME280;8643;48.824;11.422;2023-03-14T03:22:36;95270.91;;;6.65;100.00
17054;BME280;8643;48.824;11.422;2023-03-14T03:25:08;95265.00;;;6.63;100.00
17054;BME280;8643;48.824;11.422;2023-03-14T03:27:38;95268.06;;;6.61;100.00
17054;BME280;8643;48.824;11.422;2023-03-14T03:30:08;95249.03;;;6.61;100.00
17054;BME280;8643;48.824;11.422;2023-03-14T03:32:37;95246.69;;;6.60;100.00
17054;BME280;8643;48.824;11.422;2023-03-14T03:35:07;95232.63;;;6.58;100.00
17054;BME280;8643;48.824;11.422;2023-03-14T03:37:39;95244.31;;;6.58;100.00
17054;BME280;8643;48.824;11.422;2023-03-14T03:40:10;95245.78;;;6.56;100.00
17054;BME280;8643;48.824;11.422;2023-03-14T03:42:40;95253.16;;;6.55;100.00
17054;BME280;8643;48.824;11.422;2023-03-14T03:45:10;95253.50;;;6.54;100.00
17054;BME280;8643;48.824;11.422;2023-03-14T03:47:48;95250.78;;;6.54;100.00
17054;BME280;8643;48.824;11.422;2023-03-14T03:50:17;95244.19;;;6.55;100.00
17054;BME280;8643;48.824;11.422;2023-03-14T03:52:45;95241.81;;;6.53;100.00
17054;BME280;8643;48.824;11.422;2023-03-14T03:55:14;95242.72;;;6.57;100.00
17054;BME280;8643;48.824;11.422;2023-03-14T03:57:44;95239.56;;;6.55;100.00
17054;BME280;8643;48.824;11.422;2023-03-14T04:00:13;95226.31;;;6.54;100.00
17054;BME280;8643;48.824;11.422;2023-03-14T04:02:42;95239.25;;;6.45;100.00
17054;BME280;8643;48.824;11.422;2023-03-14T04:05:15;95233.47;;;6.46;100.00
17054;BME280;8643;48.824;11.422;2023-03-14T04:07:53;95227.69;;;6.48;100.00
17054;BME280;8643;48.824;11.422;2023-03-14T04:10:25;95218.28;;;6.45;100.00
17054;BME280;8643;48.824;11.422;2023-03-14T04:13:24;95217.59;;;6.48;100.00
17054;BME280;8643;48.824;11.422;2023-03-14T04:15:55;95212.97;;;6.49;100.00
17054;BME280;8643;48.824;11.422;2023-03-14T04:18:27;95204.34;;;6.47;100.00
17054;BME280;8643;48.824;11.422;2023-03-14T04:20:57;95212.63;;;6.50;100.00
17054;BME280;8643;48.824;11.422;2023-03-14T04:23:35;95211.38;;;6.48;100.00
17054;BME280;8643;48.824;11.422;2023-03-14T04:26:05;95207.19;;;6.50;100.00
17054;BME280;8643;48.824;11.422;2023-03-14T04:28:35;95211.13;;;6.53;100.00
17054;BME280;8643;48.824;11.422;2023-03-14T04:31:07;95209.66;;;6.55;100.00
17054;BME280;8643;48.824;11.422;2023-03-14T04:33:36;95209.75;;;6.59;100.00
17054;BME280;8643;48.824;11.422;2023-03-14T04:36:08;95203.19;;;6.60;100.00
17054;BME280;8643;48.824;11.422;2023-03-14T04:38:36;95213.25;;;6.59;100.00
17054;BME280;8643;48.824;11.422;2023-03-14T04:41:07;95223.78;;;6.61;100.00
17054;BME280;8643;48.824;11.422;2023-03-14T04:43:37;95215.72;;;6.65;100.00
17054;BME280;8643;48.824;11.422;2023-03-14T04:46:07;95217.72;;;6.68;100.00
17054;BME280;8643;48.824;11.422;2023-03-14T04:48:37;95226.09;;;6.75;100.00
17054;BME280;8643;48.824;11.422;2023-03-14T04:51:07;95213.28;;;6.75;100.00
17054;BME280;8643;48.824;11.422;2023-03-14T04:53:36;95209.78;;;6.75;100.00
17054;BME280;8643;48.824;11.422;2023-03-14T04:56:11;95205.97;;;6.79;100.00
17054;BME280;8643;48.824;11.422;2023-03-14T04:58:43;95198.53;;;6.76;100.00
17054;BME280;8643;48.824;11.422;2023-03-14T05:01:15;95205.13;;;6.75;100.00
17054;BME280;8643;48.824;11.422;2023-03-14T05:04:05;95186.78;;;6.72;100.00
17054;BME280;8643;48.824;11.422;2023-03-14T05:06:45;95184.94;;;6.76;100.00
17054;BME280;8643;48.824;11.422;2023-03-14T05:09:23;95190.47;;;6.80;100.00
17054;BME280;8643;48.824;11.422;2023-03-14T05:12:22;95177.31;;;6.82;100.00
17054;BME280;8643;48.824;11.422;2023-03-14T05:14:57;95179.59;;;6.80;100.00
17054;BME280;8643;48.824;11.422;2023-03-14T05:17:58;95171.34;;;6.76;100.00
17054;BME280;8643;48.824;11.422;2023-03-14T05:20:44;95161.59;;;6.75;100.00
17054;BME280;8643;48.824;11.422;2023-03-14T05:23:42;95163.53;;;6.75;100.00
17054;BME280;8643;48.824;11.422;2023-03-14T05:26:27;95154.03;;;6.69;100.00
17054;BME280;8643;48.824;11.422;2023-03-14T05:29:19;95154.66;;;6.62;100.00
17054;BME280;8643;48.824;11.422;2023-03-14T05:32:20;95168.69;;;6.64;100.00
17054;BME280;8643;48.824;11.422;2023-03-14T05:35:01;95164.84;;;6.65;100.00
17054;BME280;8643;48.824;11.422;2023-03-14T05:37:52;95162.81;;;6.62;100.00
17054;BME280;8643;48.824;11.422;2023-03-14T05:40:39;95163.69;;;6.66;100.00
17054;BME280;8643;48.824;11.422;2023-03-14T05:43:14;95167.22;;;6.67;100.00
17054;BME280;8643;48.824;11.422;2023-03-14T05:46:02;95160.25;;;6.69;100.00
17054;BME280;8643;48.824;11.422;2023-03-14T05:48:42;95162.56;;;6.67;100.00
17054;BME280;8643;48.824;11.422;2023-03-14T05:51:18;95155.53;;;6.66;100.00
17054;BME280;8643;48.824;11.422;2023-03-14T05:54:13;95152.03;;;6.66;100.00
17054;BME280;8643;48.824;11.422;2023-03-14T05:57:05;95145.88;;;6.69;100.00
17054;BME280;8643;48.824;11.422;2023-03-14T05:59:56;95146.22;;;6.67;100.00
17054;BME280;8643;48.824;11.422;2023-03-14T06:02:46;95145.09;;;6.68;100.00
17054;BME280;8643;48.824;11.422;2023-03-14T06:05:23;95144.63;;;6.66;100.00
17054;BME280;8643;48.824;11.422;2023-03-14T06:07:57;95141.22;;;6.69;100.00
17054;BME280;8643;48.824;11.422;2023-03-14T06:10:27;95145.88;;;6.69;100.00
17054;BME280;8643;48.824;11.422;2023-03-14T06:12:56;95136.59;;;6.70;100.00
17054;BME280;8643;48.824;11.422;2023-03-14T06:15:25;95131.94;;;6.70;100.00
17054;BME280;8643;48.824;11.422;2023-03-14T06:17:56;95137.38;;;6.70;100.00
17054;BME280;8643;48.824;11.422;2023-03-14T06:20:27;95139.75;;;6.72;100.00
17054;BME280;8643;48.824;11.422;2023-03-14T06:22:56;95134.31;;;6.72;100.00
17054;BME280;8643;48.824;11.422;2023-03-14T06:25:26;95136.22;;;6.71;100.00
17054;BME280;8643;48.824;11.422;2023-03-14T06:27:54;95138.34;;;6.78;100.00
17054;BME280;8643;48.824;11.422;2023-03-14T06:30:23;95151.56;;;6.79;100.00
17054;BME280;8643;48.824;11.422;2023-03-14T06:32:53;95155.53;;;6.82;100.00
17054;BME280;8643;48.824;11.422;2023-03-14T06:35:23;95145.09;;;6.84;100.00
17054;BME280;8643;48.824;11.422;2023-03-14T06:37:54;95140.44;;;6.85;100.00
17054;BME280;8643;48.824;11.422;2023-03-14T06:40:23;95145.44;;;6.83;100.00
17054;BME280;8643;48.824;11.422;2023-03-14T06:42:59;95141.59;;;6.84;100.00
17054;BME280;8643;48.824;11.422;2023-03-14T06:45:30;95142.38;;;6.84;100.00
17054;BME280;8643;48.824;11.422;2023-03-14T06:48:02;95139.28;;;6.86;100.00
17054;BME280;8643;48.824;11.422;2023-03-14T06:50:48;95132.81;;;6.90;100.00
17054;BME280;8643;48.824;11.422;2023-03-14T06:53:18;95128.59;;;6.93;100.00
17054;BME280;8643;48.824;11.422;2023-03-14T06:55:48;95123.59;;;6.95;100.00
17054;BME280;8643;48.824;11.422;2023-03-14T06:58:18;95133.94;;;7.05;100.00
17054;BME280;8643;48.824;11.422;2023-03-14T07:00:46;95139.72;;;7.20;100.00
17054;BME280;8643;48.824;11.422;2023-03-14T07:03:20;95132.72;;;7.38;100.00
17054;BME280;8643;48.824;11.422;2023-03-14T07:05:50;95131.19;;;7.57;100.00
17054;BME280;8643;48.824;11.422;2023-03-14T07:08:20;95133.63;;;7.62;100.00
17054;BME280;8643;48.824;11.422;2023-03-14T07:10:49;95138.31;;;7.61;100.00
17054;BME280;8643;48.824;11.422;2023-03-14T07:13:18;95148.69;;;7.56;100.00
17054;BME280;8643;48.824;11.422;2023-03-14T07:15:53;95151.97;;;7.45;100.00
17054;BME280;8643;48.824;11.422;2023-03-14T07:18:23;95143.94;;;7.52;100.00
17054;BME280;8643;48.824;11.422;2023-03-14T07:20:52;95146.66;;;7.52;100.00
17054;BME280;8643;48.824;11.422;2023-03-14T07:23:22;95155.72;;;7.57;100.00
17054;BME280;8643;48.824;11.422;2023-03-14T07:25:52;95165.66;;;7.49;100.00
17054;BME280;8643;48.824;11.422;2023-03-14T07:28:26;95172.22;;;7.48;100.00
17054;BME280;8643;48.824;11.422;2023-03-14T07:31:01;95178.75;;;7.43;100.00
17054;BME280;8643;48.824;11.422;2023-03-14T07:33:32;95194.16;;;7.36;100.00
17054;BME280;8643;48.824;11.422;2023-03-14T07:36:01;95191.94;;;7.41;100.00
17054;BME280;8643;48.824;11.422;2023-03-14T07:38:32;95203.63;;;7.42;100.00
17054;BME280;8643;48.824;11.422;2023-03-14T07:41:23;95196.03;;;7.51;100.00
17054;BME280;8643;48.824;11.422;2023-03-14T07:44:18;95187.97;;;7.55;100.00
17054;BME280;8643;48.824;11.422;2023-03-14T07:46:47;95198.88;;;7.55;100.00
17054;BME280;8643;48.824;11.422;2023-03-14T07:49:15;95201.47;;;7.51;100.00
17054;BME280;8643;48.824;11.422;2023-03-14T07:51:46;95201.13;;;7.52;100.00
17054;BME280;8643;48.824;11.422;2023-03-14T07:54:16;95197.69;;;7.56;100.00
17054;BME280;8643;48.824;11.422;2023-03-14T07:56:47;95195.88;;;7.60;100.00
17054;BME280;8643;48.824;11.422;2023-03-14T07:59:16;95192.31;;;7.59;100.00
17054;BME280;8643;48.824;11.422;2023-03-14T08:01:44;95192.56;;;7.70;100.00
17054;BME280;8643;48.824;11.422;2023-03-14T08:04:12;95192.19;;;7.87;100.00
17054;BME280;8643;48.824;11.422;2023-03-14T08:06:41;95186.56;;;7.80;100.00
17054;BME280;8643;48.824;11.422;2023-03-14T08:09:09;95180.41;;;7.83;100.00
17054;BME280;8643;48.824;11.422;2023-03-14T08:11:39;95178.09;;;7.85;100.00
17054;BME280;8643;48.824;11.422;2023-03-14T08:14:07;95170.94;;;7.97;100.00
17054;BME280;8643;48.824;11.422;2023-03-14T08:38:48;95151.31;;;8.46;100.00
17054;BME280;8643;48.824;11.422;2023-03-14T08:41:16;95152.66;;;8.56;100.00
17054;BME280;8643;48.824;11.422;2023-03-14T08:43:45;95150.34;;;8.81;100.00
17054;BME280;8643;48.824;11.422;2023-03-14T09:00:49;95157.16;;;8.91;100.00
17054;BME280;8643;48.824;11.422;2023-03-14T09:03:18;95160.03;;;9.25;100.00
17054;BME280;8643;48.824;11.422;2023-03-14T09:05:46;95155.13;;;9.34;100.00
17054;BME280;8643;48.824;11.422;2023-03-14T09:08:15;95163.22;;;9.30;100.00
17054;BME280;8643;48.824;11.422;2023-03-14T09:10:44;95152.00;;;9.35;100.00
17054;BME280;8643;48.824;11.422;2023-03-14T09:13:12;95159.56;;;10.03;100.00
17054;BME280;8643;48.824;11.422;2023-03-14T09:15:40;95158.63;;;9.91;100.00
17054;BME280;8643;48.824;11.422;2023-03-14T09:18:11;95152.88;;;10.00;100.00
17054;BME280;8643;48.824;11.422;2023-03-14T09:20:40;95156.13;;;10.09;100.00
17054;BME280;8643;48.824;11.422;2023-03-14T09:23:08;95153.19;;;10.97;100.00
17054;BME280;8643;48.824;11.422;2023-03-14T09:25:37;95151.72;;;12.36;100.00
17054;BME280;8643;48.824;11.422;2023-03-14T09:28:05;95164.22;;;11.63;100.00
17054;BME280;8643;48.824;11.422;2023-03-14T09:30:34;95157.41;;;10.87;100.00
17054;BME280;8643;48.824;11.422;2023-03-14T09:33:02;95158.56;;;11.34;100.00
17054;BME280;8643;48.824;11.422;2023-03-14T09:35:33;95155.66;;;12.53;100.00
17054;BME280;8643;48.824;11.422;2023-03-14T09:38:02;95147.66;;;12.04;100.00
17054;BME280;8643;48.824;11.422;2023-03-14T09:40:35;95153.31;;;12.55;100.00
17054;BME280;8643;48.824;11.422;2023-03-14T09:43:05;95146.22;;;12.32;100.00
17054;BME280;8643;48.824;11.422;2023-03-14T09:45:35;95153.09;;;11.97;100.00
17054;BME280;8643;48.824;11.422;2023-03-14T09:48:15;95146.66;;;11.68;100.00
17054;BME280;8643;48.824;11.422;2023-03-14T09:56:39;95144.63;;;11.06;100.00
17054;BME280;8643;48.824;11.422;2023-03-14T09:59:12;95137.16;;;11.54;100.00
17054;BME280;8643;48.824;11.422;2023-03-14T10:01:41;95146.13;;;11.48;100.00
17054;BME280;8643;48.824;11.422;2023-03-14T10:04:15;95141.06;;;11.50;100.00
17054;BME280;8643;48.824;11.422;2023-03-14T10:06:45;95142.50;;;11.33;100.00
17054;BME280;8643;48.824;11.422;2023-03-14T10:09:20;95129.97;;;11.32;100.00
17054;BME280;8643;48.824;11.422;2023-03-14T10:11:58;95136.50;;;11.76;100.00
17054;BME280;8643;48.824;11.422;2023-03-14T10:14:36;95123.72;;;11.98;100.00
17054;BME280;8643;48.824;11.422;2023-03-14T10:17:09;95127.34;;;12.20;98.88
17054;BME280;8643;48.824;11.422;2023-03-14T10:19:51;95144.41;;;11.88;99.39
17054;BME280;8643;48.824;11.422;2023-03-14T10:22:21;95119.69;;;11.81;99.78
17054;BME280;8643;48.824;11.422;2023-03-14T10:24:54;95109.78;;;11.62;100.00
17054;BME280;8643;48.824;11.422;2023-03-14T10:27:31;95113.78;;;12.88;96.52
17054;BME280;8643;48.824;11.422;2023-03-14T10:30:03;95120.06;;;13.10;94.94
17054;BME280;8643;48.824;11.422;2023-03-14T10:32:37;95109.38;;;13.84;89.45
17054;BME280;8643;48.824;11.422;2023-03-14T10:35:20;95111.66;;;14.07;89.59
17054;BME280;8643;48.824;11.422;2023-03-14T10:37:53;95105.38;;;14.88;82.94
17054;BME280;8643;48.824;11.422;2023-03-14T10:40:29;95111.97;;;14.31;87.80
17054;BME280;8643;48.824;11.422;2023-03-14T10:43:05;95112.78;;;14.24;90.05
17054;BME280;8643;48.824;11.422;2023-03-14T10:45:38;95109.81;;;12.53;91.58
17054;BME280;8643;48.824;11.422;2023-03-14T10:48:19;95123.63;;;11.21;99.14
17054;BME280;8643;48.824;11.422;2023-03-14T10:50:54;95111.00;;;11.05;100.00
17054;BME280;8643;48.824;11.422;2023-03-14T10:53:25;95121.47;;;10.96;100.00
17054;BME280;8643;48.824;11.422;2023-03-14T10:55:56;95116.03;;;11.03;100.00
17054;BME280;8643;48.824;11.422;2023-03-14T10:58:28;95118.59;;;10.78;100.00
17054;BME280;8643;48.824;11.422;2023-03-14T11:01:11;95121.56;;;10.62;100.00
17054;BME280;8643;48.824;11.422;2023-03-14T11:03:52;95114.00;;;10.89;100.00
17054;BME280;8643;48.824;11.422;2023-03-14T11:06:34;95115.63;;;11.53;99.47
17054;BME280;8643;48.824;11.422;2023-03-14T11:09:13;95109.22;;;11.97;96.94
17054;BME280;8643;48.824;11.422;2023-03-14T11:11:46;95102.88;;;11.89;95.01
17054;BME280;8643;48.824;11.422;2023-03-14T11:14:26;95104.13;;;11.96;96.22
17054;BME280;8643;48.824;11.422;2023-03-14T11:17:03;95103.97;;;11.70;95.74
17054;BME280;8643;48.824;11.422;2023-03-14T11:20:01;95107.38;;;11.46;96.53
17054;BME280;8643;48.824;11.422;2023-03-14T11:22:40;95098.72;;;11.44;100.00
17054;BME280;8643;48.824;11.422;2023-03-14T11:25:24;95101.66;;;11.13;98.46
17054;BME280;8643;48.824;11.422;2023-03-14T11:28:07;95091.53;;;11.21;100.00
17054;BME280;8643;48.824;11.422;2023-03-14T11:30:49;95124.53;;;11.39;96.98
17054;BME280;8643;48.824;11.422;2023-03-14T11:33:22;95078.38;;;11.41;97.03
17054;BME280;8643;48.824;11.422;2023-03-14T11:36:01;95077.31;;;11.67;96.50
17054;BME280;8643;48.824;11.422;2023-03-14T11:38:38;95081.19;;;12.72;91.18
17054;BME280;8643;48.824;11.422;2023-03-14T11:41:16;95071.63;;;13.88;85.96
17054;BME280;8643;48.824;11.422;2023-03-14T11:43:49;95080.03;;;12.88;86.10
17054;BME280;8643;48.824;11.422;2023-03-14T11:46:28;95071.25;;;12.10;89.41
17054;BME280;8643;48.824;11.422;2023-03-14T11:49:06;95063.06;;;12.24;91.41
17054;BME280;8643;48.824;11.422;2023-03-14T11:51:40;95063.91;;;12.64;87.97
17054;BME280;8643;48.824;11.422;2023-03-14T11:54:20;95065.03;;;13.64;82.48
17054;BME280;8643;48.824;11.422;2023-03-14T11:56:55;95038.38;;;14.35;83.34
17054;BME280;8643;48.824;11.422;2023-03-14T11:59:33;95063.03;;;14.57;78.08
17054;BME280;8643;48.824;11.422;2023-03-14T12:02:22;95061.28;;;14.21;81.07
17054;BME280;8643;48.824;11.422;2023-03-14T12:05:27;95060.41;;;12.93;85.38
17054;BME280;8643;48.824;11.422;2023-03-14T12:08:38;95047.84;;;12.67;87.81
17054;BME280;8643;48.824;11.422;2023-03-14T12:11:17;95046.28;;;12.76;85.02
17054;BME280;8643;48.824;11.422;2023-03-14T12:13:49;95037.59;;;12.38;86.66
17054;BME280;8643;48.824;11.422;2023-03-14T12:26:12;95038.50;;;11.54;92.14
17054;BME280;8643;48.824;11.422;2023-03-14T12:28:49;95050.66;;;11.61;91.11
17054;BME280;8643;48.824;11.422;2023-03-14T13:41:49;95127.59;;;8.73;100.00
17054;BME280;8643;48.824;11.422;2023-03-14T13:44:24;95138.81;;;8.68;100.00
17054;BME280;8643;48.824;11.422;2023-03-14T13:46:58;95136.81;;;8.65;100.00
17054;BME280;8643;48.824;11.422;2023-03-14T13:49:31;95157.59;;;8.50;100.00
17054;BME280;8643;48.824;11.422;2023-03-14T13:52:20;95150.78;;;8.40;100.00
17054;BME280;8643;48.824;11.422;2023-03-14T13:54:53;95168.31;;;8.39;100.00
17054;BME280;8643;48.824;11.422;2023-03-14T14:01:21;95182.84;;;8.27;100.00
17054;BME280;8643;48.824;11.422;2023-03-14T14:09:13;95192.63;;;8.29;100.00
17054;BME280;8643;48.824;11.422;2023-03-14T14:11:51;95195.72;;;8.27;100.00
17054;BME280;8643;48.824;11.422;2023-03-14T14:14:46;95206.56;;;8.23;100.00
17054;BME280;8643;48.824;11.422;2023-03-14T14:17:20;95208.03;;;8.21;100.00
17054;BME280;8643;48.824;11.422;2023-03-14T14:19:50;95197.44;;;8.16;100.00
17054;BME280;8643;48.824;11.422;2023-03-14T14:22:20;95212.59;;;8.13;100.00
17054;BME280;8643;48.824;11.422;2023-03-14T14:24:50;95210.13;;;8.08;100.00
17054;BME280;8643;48.824;11.422;2023-03-14T14:27:28;95218.22;;;8.04;100.00
17054;BME280;8643;48.824;11.422;2023-03-14T14:30:02;95226.41;;;8.04;100.00
17054;BME280;8643;48.824;11.422;2023-03-14T14:32:37;95239.97;;;8.01;100.00
17054;BME280;8643;48.824;11.422;2023-03-14T14:35:09;95229.78;;;7.98;100.00
17054;BME280;8643;48.824;11.422;2023-03-14T14:37:43;95238.94;;;7.89;100.00
17054;BME280;8643;48.824;11.422;2023-03-14T14:40:19;95256.94;;;7.94;100.00
17054;BME280;8643;48.824;11.422;2023-03-14T14:42:49;95264.50;;;8.01;100.00
17054;BME280;8643;48.824;11.422;2023-03-14T14:45:22;95258.06;;;8.09;100.00
17054;BME280;8643;48.824;11.422;2023-03-14T14:47:53;95262.00;;;8.12;100.00
17054;BME280;8643;48.824;11.422;2023-03-14T14:50:29;95279.50;;;8.11;100.00
17054;BME280;8643;48.824;11.422;2023-03-14T14:53:00;95297.72;;;8.06;100.00
17054;BME280;8643;48.824;11.422;2023-03-14T14:55:33;95293.34;;;8.02;100.00
17054;BME280;8643;48.824;11.422;2023-03-14T14:58:18;95307.56;;;7.95;100.00
17054;BME280;8643;48.824;11.422;2023-03-14T15:00:56;95322.72;;;7.93;100.00
17054;BME280;8643;48.824;11.422;2023-03-14T15:03:30;95357.88;;;7.98;100.00
17054;BME280;8643;48.824;11.422;2023-03-14T15:06:00;95361.66;;;8.09;100.00
17054;BME280;8643;48.824;11.422;2023-03-14T15:08:29;95431.56;;;8.17;100.00
17054;BME280;8643;48.824;11.422;2023-03-14T15:10:59;95388.00;;;8.05;100.00
17054;BME280;8643;48.824;11.422;2023-03-14T15:13:28;95361.91;;;8.04;100.00
17054;BME280;8643;48.824;11.422;2023-03-14T15:15:56;95412.38;;;7.98;100.00
17054;BME280;8643;48.824;11.422;2023-03-14T15:18:29;95420.28;;;7.87;100.00
17054;BME280;8643;48.824;11.422;2023-03-14T15:20:58;95424.25;;;7.89;100.00
17054;BME280;8643;48.824;11.422;2023-03-14T15:23:27;95435.69;;;7.79;100.00
17054;BME280;8643;48.824;11.422;2023-03-14T15:25:55;95436.72;;;7.75;100.00
17054;BME280;8643;48.824;11.422;2023-03-14T15:28:28;95441.75;;;7.73;100.00
17054;BME280;8643;48.824;11.422;2023-03-14T15:30:58;95443.75;;;7.60;100.00
17054;BME280;8643;48.824;11.422;2023-03-14T15:33:27;95440.75;;;7.65;100.00
17054;BME280;8643;48.824;11.422;2023-03-14T15:35:56;95447.66;;;7.91;100.00
17054;BME280;8643;48.824;11.422;2023-03-14T15:38:25;95458.88;;;7.73;100.00
17054;BME280;8643;48.824;11.422;2023-03-14T15:40:54;95456.44;;;7.84;100.00
17054;BME280;8643;48.824;11.422;2023-03-14T15:43:22;95480.31;;;7.75;100.00
17054;BME280;8643;48.824;11.422;2023-03-14T15:45:52;95504.59;;;7.80;100.00
17054;BME280;8643;48.824;11.422;2023-03-14T15:48:21;95489.72;;;7.77;99.71
17054;BME280;8643;48.824;11.422;2023-03-14T15:50:50;95486.88;;;8.66;95.40